createdAt,value
2019-04-03T00:00:41.923Z,7.83
2019-04-03T00:03:12.421Z,8.27
2019-04-03T00:05:42.848Z,7.70
2019-04-03T00:08:13.377Z,7.87
2019-04-03T00:10:43.902Z,8.33
2019-04-03T00:13:14.378Z,7.47
2019-04-03T00:15:45.280Z,7.03
2019-04-03T00:18:16.735Z,7.30
2019-04-03T00:20:48.844Z,6.83
2019-04-03T00:23:20.588Z,7.70
2019-04-03T00:25:52.387Z,7.50
2019-04-03T00:28:23.264Z,7.33
2019-04-03T00:30:53.701Z,7.10
2019-04-03T00:33:24.239Z,7.20
2019-04-03T00:35:54.737Z,7.03
2019-04-03T00:38:25.220Z,7.37
2019-04-03T00:40:55.986Z,8.13
2019-04-03T00:43:26.456Z,7.03
2019-04-03T00:45:57.258Z,7.73
2019-04-03T00:48:28.132Z,7.50
2019-04-03T00:50:58.565Z,7.80
2019-04-03T00:53:28.996Z,7.80
2019-04-03T00:55:59.456Z,7.27
2019-04-03T00:58:39.093Z,7.43
2019-04-03T01:01:12.110Z,6.93
2019-04-03T01:03:42.956Z,7.03
2019-04-03T01:06:13.377Z,7.40
2019-04-03T01:08:43.931Z,7.20
2019-04-03T01:11:14.411Z,7.50
2019-04-03T01:13:44.945Z,8.13
2019-04-03T01:16:15.395Z,7.27
2019-04-03T01:18:51.645Z,6.90
2019-04-03T01:21:22.615Z,7.27
2019-04-03T01:23:53.045Z,7.30
2019-04-03T01:26:23.622Z,7.00
2019-04-03T01:28:54.004Z,6.77
2019-04-03T01:31:24.480Z,7.17
2019-04-03T01:33:54.922Z,7.97
2019-04-03T01:36:25.384Z,7.00
2019-04-03T01:38:56.240Z,7.50
2019-04-03T01:41:27.079Z,7.73
2019-04-03T01:43:57.513Z,6.90
2019-04-03T01:46:28.432Z,6.83
2019-04-03T01:48:59.021Z,6.97
2019-04-03T01:51:29.928Z,6.97
2019-04-03T01:54:02.318Z,6.47
2019-04-03T01:56:33.857Z,7.23
2019-04-03T01:59:06.571Z,6.73
2019-04-03T02:01:38.677Z,7.50
2019-04-03T02:04:12.227Z,6.90
2019-04-03T02:06:43.743Z,6.97
2019-04-03T02:09:16.003Z,6.33
2019-04-03T02:11:48.934Z,6.83
2019-04-03T02:14:21.096Z,7.07
2019-04-03T02:16:53.212Z,6.23
2019-04-03T02:19:25.729Z,7.00
2019-04-03T02:21:57.992Z,6.60
2019-04-03T02:24:27.384Z,6.30
2019-04-03T02:26:58.195Z,7.03
2019-04-03T02:29:28.697Z,6.50
2019-04-03T02:31:59.131Z,6.90
2019-04-03T02:34:33.649Z,6.67
2019-04-03T02:37:01.755Z,6.27
2019-04-03T02:39:32.550Z,6.90
2019-04-03T02:42:03.084Z,6.50
2019-04-03T02:44:34.792Z,6.80
2019-04-03T02:47:05.365Z,6.60
2019-04-03T02:49:36.796Z,7.67
2019-04-03T02:52:07.315Z,6.67
2019-04-03T02:54:41.588Z,7.10
2019-04-03T02:57:12.076Z,6.87
2019-04-03T02:59:43.076Z,6.93
2019-04-03T03:02:13.760Z,7.47
2019-04-03T03:04:44.281Z,6.60
2019-04-03T03:07:14.792Z,6.47
2019-04-03T03:09:47.781Z,6.43
2019-04-03T03:12:19.056Z,6.20
2019-04-03T03:14:50.329Z,6.07
2019-04-03T03:17:23.356Z,6.33
2019-04-03T03:19:54.349Z,6.30
2019-04-03T03:22:25.079Z,6.30
2019-04-03T03:24:59.729Z,6.57
2019-04-03T03:27:30.301Z,5.73
2019-04-03T03:30:00.851Z,5.90
2019-04-03T03:32:35.710Z,6.43
2019-04-03T03:35:12.489Z,6.53
2019-04-03T03:37:38.876Z,6.80
2019-04-03T03:40:09.575Z,6.80
2019-04-03T03:42:40.716Z,7.00
2019-04-03T03:45:11.603Z,7.03
2019-04-03T03:47:42.861Z,7.87
2019-04-03T03:50:13.603Z,7.10
2019-04-03T03:52:44.137Z,7.63
2019-04-03T03:55:14.839Z,7.20
2019-04-03T03:57:45.593Z,7.27
2019-04-03T04:00:16.593Z,7.70
2019-04-03T04:02:47.418Z,7.33
2019-04-03T04:05:21.383Z,7.40
2019-04-03T04:07:50.837Z,6.90
2019-04-03T04:10:25.288Z,6.93
2019-04-03T04:12:54.633Z,6.50
2019-04-03T04:15:28.794Z,6.27
2019-04-03T04:17:57.299Z,6.73
2019-04-03T04:20:28.283Z,5.93
2019-04-03T04:22:59.693Z,6.30
2019-04-03T04:25:31.223Z,6.63
2019-04-03T04:28:01.850Z,6.73
2019-04-03T04:30:32.718Z,6.67
2019-04-03T04:33:03.191Z,6.17
2019-04-03T04:35:33.962Z,6.43
2019-04-03T04:38:04.403Z,5.93
2019-04-03T04:40:35.206Z,6.20
2019-04-03T04:43:07.447Z,6.17
2019-04-03T04:45:37.755Z,6.40
2019-04-03T04:48:08.192Z,6.00
2019-04-03T04:50:38.999Z,6.37
2019-04-03T04:53:09.885Z,6.17
2019-04-03T04:55:40.679Z,6.00
2019-04-03T04:58:12.231Z,5.50
2019-04-03T05:00:42.979Z,5.97
2019-04-03T05:03:13.520Z,6.30
2019-04-03T05:05:44.239Z,5.87
2019-04-03T05:08:14.754Z,5.80
2019-04-03T05:10:48.398Z,5.70
2019-04-03T05:13:17.868Z,6.00
2019-04-03T05:15:48.459Z,6.57
2019-04-03T05:18:20.051Z,5.43
2019-04-03T05:20:51.412Z,6.37
2019-04-03T05:23:21.865Z,6.30
2019-04-03T05:25:52.779Z,5.70
2019-04-03T05:28:24.863Z,5.53
2019-04-03T05:30:55.787Z,5.90
2019-04-03T05:33:26.404Z,5.97
2019-04-03T05:35:56.841Z,5.57
2019-04-03T05:38:28.859Z,5.87
2019-04-03T05:40:59.400Z,5.70
2019-04-03T05:43:31.084Z,6.70
2019-04-03T05:46:02.094Z,5.63
2019-04-03T05:48:33.791Z,5.90
2019-04-03T05:51:04.255Z,5.80
2019-04-03T05:53:36.684Z,6.80
2019-04-03T05:56:07.299Z,6.30
2019-04-03T05:58:37.773Z,6.30
2019-04-03T06:01:10.814Z,6.27
2019-04-03T06:03:44.493Z,6.10
2019-04-03T06:06:14.487Z,6.13
2019-04-03T06:08:45.856Z,5.93
2019-04-03T06:11:16.549Z,6.57
2019-04-03T06:13:48.031Z,6.80
2019-04-03T06:16:19.093Z,5.73
2019-04-03T06:18:49.778Z,6.77
2019-04-03T06:21:20.325Z,6.70
2019-04-03T06:23:52.560Z,7.13
2019-04-03T06:26:23.472Z,6.97
2019-04-03T06:28:54.362Z,7.17
2019-04-03T06:31:26.446Z,7.53
2019-04-03T06:33:56.920Z,7.50
2019-04-03T06:36:27.401Z,7.67
2019-04-03T06:38:58.185Z,8.03
2019-04-03T06:41:28.613Z,8.10
2019-04-03T06:43:59.093Z,8.27
2019-04-03T06:46:29.931Z,8.00
2019-04-03T06:49:01.431Z,8.13
2019-04-03T06:51:32.772Z,7.37
2019-04-03T06:54:07.162Z,8.23
2019-04-03T06:56:38.352Z,8.87
2019-04-03T06:59:09.437Z,8.67
2019-04-03T07:01:39.928Z,8.53
2019-04-03T07:04:10.484Z,8.23
2019-04-03T07:06:40.960Z,9.33
2019-04-03T07:09:21.843Z,8.20
2019-04-03T07:11:44.088Z,9.03
2019-04-03T07:14:14.751Z,8.30
2019-04-03T07:16:45.446Z,8.80
2019-04-03T07:19:16.001Z,8.63
2019-04-03T07:21:46.836Z,9.73
2019-04-03T07:24:17.581Z,9.70
2019-04-03T07:26:48.199Z,8.77
2019-04-03T07:29:19.061Z,8.47
2019-04-03T07:31:49.492Z,9.43
2019-04-03T07:34:19.926Z,8.93
2019-04-03T07:36:51.167Z,9.17
2019-04-03T07:39:21.718Z,8.80
2019-04-03T07:41:54.126Z,9.47
2019-04-03T07:44:24.497Z,8.03
2019-04-03T07:46:55.697Z,8.13
2019-04-03T07:49:26.256Z,7.70
2019-04-03T07:51:56.738Z,7.80
2019-04-03T07:54:27.554Z,7.90
2019-04-03T07:56:58.176Z,6.67
2019-04-03T07:59:28.627Z,7.63
2019-04-03T08:01:59.503Z,7.20
2019-04-03T08:04:30.062Z,7.43
2019-04-03T08:07:02.115Z,7.47
2019-04-03T08:09:32.668Z,7.90
2019-04-03T08:12:04.578Z,7.57
2019-04-03T08:14:36.692Z,7.33
2019-04-03T08:17:07.123Z,7.60
2019-04-03T08:19:37.942Z,7.40
2019-04-03T08:22:08.471Z,7.70
2019-04-03T08:24:40.126Z,7.37
2019-04-03T08:27:11.154Z,7.00
2019-04-03T08:29:41.677Z,7.00
2019-04-03T08:32:13.729Z,6.10
2019-04-03T08:34:44.316Z,7.13
2019-04-03T08:37:27.662Z,7.40
2019-04-03T08:39:49.159Z,7.90
2019-04-03T08:42:20.770Z,6.70
2019-04-03T08:44:51.266Z,7.50
2019-04-03T08:47:21.795Z,7.03
2019-04-03T08:49:52.429Z,6.30
2019-04-03T08:52:22.872Z,6.50
2019-04-03T08:54:53.725Z,6.90
2019-04-03T08:57:24.140Z,7.73
2019-04-03T08:59:54.581Z,7.73
2019-04-03T09:02:25.502Z,7.40
2019-04-03T09:04:55.957Z,6.90
2019-04-03T09:07:26.839Z,6.90
2019-04-03T09:10:00.426Z,7.30
2019-04-03T09:12:29.691Z,7.33
2019-04-03T09:15:00.238Z,6.90
2019-04-03T09:17:33.460Z,6.87
2019-04-03T09:20:04.148Z,6.20
2019-04-03T09:22:34.613Z,6.87
2019-04-03T09:25:05.944Z,6.57
2019-04-03T09:27:37.964Z,6.50
2019-04-03T09:30:15.629Z,6.27
2019-04-03T09:32:45.486Z,6.60
2019-04-03T09:35:16.240Z,6.90
2019-04-03T09:37:46.973Z,6.70
2019-04-03T09:40:19.248Z,6.40
2019-04-03T09:42:51.263Z,6.80
2019-04-03T09:45:22.047Z,6.10
2019-04-03T09:47:52.649Z,6.60
2019-04-03T09:50:23.099Z,6.57
2019-04-03T09:52:55.221Z,7.27
2019-04-03T09:55:26.325Z,7.43
2019-04-03T09:57:56.855Z,6.57
2019-04-03T10:00:27.592Z,5.73
2019-04-03T10:02:58.052Z,6.97
2019-04-03T10:05:29.794Z,7.57
2019-04-03T10:08:00.420Z,6.97
2019-04-03T10:10:30.826Z,7.13
2019-04-03T10:13:01.393Z,6.93
2019-04-03T10:15:32.032Z,6.10
2019-04-03T10:18:03.092Z,5.43
2019-04-03T10:20:33.937Z,5.27
2019-04-03T10:23:05.477Z,6.33
2019-04-03T10:25:37.051Z,6.57
2019-04-03T10:28:08.461Z,6.37
2019-04-03T10:30:38.902Z,6.13
2019-04-03T10:33:09.373Z,5.80
2019-04-03T10:35:39.978Z,5.67
2019-04-03T10:38:10.435Z,5.57
2019-04-03T10:40:40.885Z,6.23
2019-04-03T10:43:11.655Z,6.33
2019-04-03T10:45:42.286Z,5.93
2019-04-03T10:48:12.818Z,6.67
2019-04-03T10:50:43.668Z,7.23
2019-04-03T10:53:14.458Z,6.27
2019-04-03T10:55:44.904Z,7.07
2019-04-03T10:58:15.623Z,6.83
2019-04-03T11:00:46.227Z,7.40
2019-04-03T11:03:16.699Z,6.10
2019-04-03T11:05:47.233Z,6.43
2019-04-03T11:08:18.044Z,6.97
2019-04-03T11:10:48.623Z,6.53
2019-04-03T11:13:19.166Z,7.40
2019-04-03T11:15:50.373Z,7.90
2019-04-03T11:18:21.823Z,7.90
2019-04-03T11:20:53.185Z,7.70
2019-04-03T11:23:36.943Z,8.00
2019-04-03T11:25:57.648Z,7.37
2019-04-03T11:28:28.432Z,8.03
2019-04-03T11:31:01.153Z,7.90
2019-04-03T11:33:31.898Z,8.00
2019-04-03T11:36:02.618Z,7.80
2019-04-03T11:38:33.928Z,7.93
2019-04-03T11:41:13.471Z,7.43
2019-04-03T11:43:36.976Z,6.83
2019-04-03T11:46:08.334Z,7.43
2019-04-03T11:48:39.019Z,8.43
2019-04-03T11:51:09.666Z,8.40
2019-04-03T11:53:40.139Z,8.00
2019-04-03T11:56:13.318Z,7.87
2019-04-03T11:58:44.228Z,8.27
2019-04-03T12:01:16.747Z,8.43
2019-04-03T12:03:48.280Z,8.20
2019-04-03T12:06:21.066Z,8.00
2019-04-03T12:08:51.624Z,7.80
2019-04-03T12:11:22.684Z,7.60
2019-04-03T12:13:53.179Z,7.50
2019-04-03T12:16:25.899Z,6.67
2019-04-03T12:18:56.186Z,3.87
2019-04-03T12:21:26.918Z,3.27
2019-04-03T12:23:58.221Z,2.93
2019-04-03T12:26:30.931Z,3.60
2019-04-03T12:29:01.520Z,3.23
2019-04-03T12:31:32.003Z,3.00
2019-04-03T12:34:05.214Z,3.00
2019-04-03T12:36:34.895Z,3.10
2019-04-03T12:39:11.632Z,2.67
2019-04-03T12:41:43.159Z,2.23
2019-04-03T12:44:14.472Z,2.30
2019-04-03T12:46:46.330Z,2.13
2019-04-03T12:49:17.026Z,2.33
2019-04-03T12:51:48.217Z,2.13
2019-04-03T12:54:20.265Z,2.20
2019-04-03T12:56:51.396Z,2.23
2019-04-03T12:59:21.808Z,2.07
2019-04-03T13:01:53.822Z,2.20
2019-04-03T13:04:25.811Z,2.40
2019-04-03T13:06:56.730Z,1.87
2019-04-03T13:09:27.457Z,2.10
2019-04-03T13:11:58.871Z,2.30
2019-04-03T13:14:30.179Z,2.33
2019-04-03T13:17:01.692Z,1.90
2019-04-03T13:19:32.166Z,2.30
2019-04-03T13:22:02.661Z,2.00
2019-04-03T13:24:33.094Z,2.20
2019-04-03T13:27:03.580Z,2.33
2019-04-03T13:29:34.014Z,1.97
2019-04-03T13:32:05.157Z,1.93
2019-04-03T13:34:35.666Z,1.60
2019-04-03T13:37:06.487Z,2.20
2019-04-03T13:39:37.191Z,1.70
2019-04-03T13:42:07.662Z,1.90
2019-04-03T13:44:38.096Z,1.80
2019-04-03T13:47:09.252Z,2.00
2019-04-03T13:49:40.302Z,2.30
2019-04-03T13:52:10.829Z,1.70
2019-04-03T13:54:42.248Z,2.70
2019-04-03T13:57:14.684Z,2.40
2019-04-03T13:59:45.321Z,2.50
2019-04-03T14:02:16.113Z,2.50
2019-04-03T14:04:48.611Z,2.83
2019-04-03T14:07:19.081Z,3.00
2019-04-03T14:09:53.801Z,3.10
2019-04-03T14:12:22.368Z,3.20
2019-04-03T14:14:53.569Z,3.00
2019-04-03T14:17:24.145Z,3.23
2019-04-03T14:19:55.065Z,3.20
2019-04-03T14:22:25.986Z,3.13
2019-04-03T14:24:56.443Z,3.23
2019-04-03T14:27:30.695Z,3.00
2019-04-03T14:29:59.803Z,3.50
2019-04-03T14:32:30.344Z,3.70
2019-04-03T14:35:10.260Z,2.93
2019-04-03T14:37:33.587Z,3.37
2019-04-03T14:40:04.411Z,3.73
2019-04-03T14:42:35.078Z,3.63
2019-04-03T14:45:06.957Z,3.80
2019-04-03T14:47:37.584Z,3.57
2019-04-03T14:50:09.568Z,3.80
2019-04-03T14:52:40.011Z,3.90
2019-04-03T14:55:17.707Z,3.67
2019-04-03T14:57:43.531Z,3.47
2019-04-03T15:00:26.635Z,3.93
2019-04-03T15:02:49.113Z,3.47
2019-04-03T15:05:19.740Z,3.80
2019-04-03T15:07:51.491Z,4.00
2019-04-03T15:10:22.250Z,3.70
2019-04-03T15:12:53.791Z,3.73
2019-04-03T15:15:27.547Z,3.80
2019-04-03T15:18:00.047Z,3.37
2019-04-03T15:20:32.785Z,3.33
2019-04-03T15:23:05.255Z,3.40
2019-04-03T15:25:36.122Z,3.10
2019-04-03T15:28:06.670Z,3.37
2019-04-03T15:30:37.285Z,6.57
2019-04-03T15:33:08.988Z,6.97
2019-04-03T15:35:40.211Z,7.07
2019-04-03T15:38:13.401Z,6.80
2019-04-03T15:40:44.013Z,8.00
2019-04-03T15:43:16.279Z,9.43
2019-04-03T15:45:47.712Z,8.60
2019-04-03T15:48:20.996Z,9.13
2019-04-03T15:50:50.270Z,9.50
2019-04-03T15:53:23.762Z,9.77
2019-04-03T15:55:53.450Z,8.73
2019-04-03T15:58:25.698Z,8.73
2019-04-03T16:00:57.342Z,8.83
2019-04-03T16:03:28.423Z,9.03
2019-04-03T16:06:02.748Z,9.00
2019-04-03T16:08:32.182Z,8.50
2019-04-03T16:11:02.802Z,10.00
2019-04-03T16:13:33.198Z,8.67
2019-04-03T16:16:03.852Z,7.87
2019-04-03T16:18:36.227Z,8.60
2019-04-03T16:21:07.470Z,7.73
2019-04-03T16:23:38.689Z,10.03
2019-04-03T16:26:10.088Z,9.43
2019-04-03T16:28:42.397Z,9.50
2019-04-03T16:31:14.947Z,8.43
2019-04-03T16:33:45.757Z,8.23
2019-04-03T16:36:17.119Z,8.27
2019-04-03T16:38:49.668Z,8.13
2019-04-03T16:41:20.420Z,8.27
2019-04-03T16:43:50.904Z,23.10
2019-04-03T16:46:21.384Z,9.93
2019-04-03T16:48:51.820Z,9.00
2019-04-03T16:51:22.721Z,10.40
2019-04-03T16:53:53.224Z,8.90
2019-04-03T16:56:24.062Z,10.50
2019-04-03T16:58:59.576Z,9.17
2019-04-03T17:01:28.552Z,9.90
2019-04-03T17:03:59.002Z,9.70
2019-04-03T17:06:29.456Z,9.53
2019-04-03T17:09:00.257Z,9.23
2019-04-03T17:11:30.718Z,9.10
2019-04-03T17:14:01.194Z,9.90
2019-04-03T17:16:32.073Z,9.13
2019-04-03T17:19:03.524Z,9.47
2019-04-03T17:21:37.525Z,9.43
2019-04-03T17:24:06.177Z,8.93
2019-04-03T17:26:48.358Z,9.53
2019-04-03T17:29:09.234Z,8.90
2019-04-03T17:31:42.017Z,9.03
2019-04-03T17:34:13.632Z,9.27
2019-04-03T17:36:44.859Z,8.30
2019-04-03T17:39:15.903Z,8.87
2019-04-03T17:41:46.821Z,9.43
2019-04-03T17:44:17.679Z,8.43
2019-04-03T17:46:49.383Z,10.60
2019-04-03T17:49:20.022Z,10.37
2019-04-03T17:51:50.468Z,11.77
2019-04-03T17:54:21.720Z,11.03
2019-04-03T17:56:52.158Z,10.80
2019-04-03T17:59:23.034Z,11.87
2019-04-03T18:01:53.503Z,10.80
2019-04-03T18:04:23.951Z,11.03
2019-04-03T18:06:57.273Z,10.50
2019-04-03T18:09:26.608Z,10.07
2019-04-03T18:11:58.026Z,11.60
2019-04-03T18:14:28.734Z,10.50
2019-04-03T18:17:01.130Z,10.37
2019-04-03T18:19:37.821Z,10.43
2019-04-03T18:22:04.427Z,12.10
2019-04-03T18:24:34.874Z,11.77
2019-04-03T18:27:06.542Z,11.70
2019-04-03T18:29:37.976Z,11.73
2019-04-03T18:32:08.542Z,11.70
2019-04-03T18:34:39.116Z,11.33
2019-04-03T18:37:09.934Z,12.73
2019-04-03T18:39:41.370Z,13.53
2019-04-03T18:42:12.329Z,12.60
2019-04-03T18:44:43.468Z,12.23
2019-04-03T18:47:15.847Z,12.00
2019-04-03T18:49:46.281Z,13.90
2019-04-03T18:52:18.261Z,13.33
2019-04-03T18:54:48.722Z,13.50
2019-04-03T18:57:19.181Z,13.07
2019-04-03T18:59:49.658Z,13.10
2019-04-03T19:02:20.841Z,13.57
2019-04-03T19:05:01.257Z,14.40
2019-04-03T19:07:24.383Z,14.20
2019-04-03T19:10:06.419Z,14.17
2019-04-03T19:12:35.565Z,14.93
2019-04-03T19:15:02.582Z,14.77
2019-04-03T19:17:32.613Z,12.37
2019-04-03T19:20:10.246Z,12.67
2019-04-03T19:22:35.721Z,13.00
2019-04-03T19:25:07.977Z,12.50
2019-04-03T19:27:38.873Z,12.57
2019-04-03T19:30:11.717Z,13.07
2019-04-03T19:32:43.352Z,12.03
2019-04-03T19:35:16.925Z,10.40
2019-04-03T19:37:47.730Z,11.77
2019-04-03T19:40:18.480Z,12.33
2019-04-03T19:42:49.111Z,10.67
2019-04-03T19:45:21.376Z,12.00
2019-04-03T19:47:54.672Z,19.43
2019-04-03T19:50:23.897Z,13.57
2019-04-03T19:52:54.707Z,12.93
2019-04-03T19:55:25.926Z,13.33
2019-04-03T19:57:57.866Z,13.23
2019-04-03T20:00:28.618Z,12.27
2019-04-03T20:03:01.920Z,12.27
2019-04-03T20:05:33.122Z,12.17
2019-04-03T20:08:03.974Z,12.80
2019-04-03T20:10:34.761Z,11.53
2019-04-03T20:13:05.297Z,10.83
2019-04-03T20:15:36.988Z,12.50
2019-04-03T20:18:07.506Z,11.03
2019-04-03T20:20:37.999Z,10.87
2019-04-03T20:23:08.933Z,12.23
2019-04-03T20:25:40.618Z,11.40
2019-04-03T20:28:11.482Z,10.60
2019-04-03T20:30:42.138Z,12.43
2019-04-03T20:33:13.731Z,11.87
2019-04-03T20:35:45.106Z,11.40
2019-04-03T20:38:17.064Z,11.20
2019-04-03T20:40:50.465Z,11.13
2019-04-03T20:43:21.259Z,12.70
2019-04-03T20:45:51.717Z,11.50
2019-04-03T20:48:22.222Z,11.63
2019-04-03T20:50:53.295Z,12.53
2019-04-03T20:53:24.142Z,11.80
2019-04-03T20:55:56.031Z,12.20
2019-04-03T20:58:27.143Z,13.23
2019-04-03T21:01:06.158Z,12.57
2019-04-03T21:03:30.157Z,13.33
2019-04-03T21:06:00.600Z,12.20
2019-04-03T21:08:31.751Z,15.43
2019-04-03T21:11:02.893Z,15.80
2019-04-03T21:13:33.363Z,17.30
2019-04-03T21:16:03.827Z,20.20
2019-04-03T21:18:34.373Z,20.23
2019-04-03T21:21:04.820Z,20.40
2019-04-03T21:23:35.252Z,13.77
2019-04-03T21:26:07.299Z,8.63
2019-04-03T21:28:40.778Z,7.60
2019-04-03T21:31:10.143Z,4.50
2019-04-03T21:33:40.575Z,5.27
2019-04-03T21:36:11.328Z,4.40
2019-04-03T21:38:42.270Z,4.27
2019-04-03T21:41:12.778Z,3.93
2019-04-03T21:43:43.204Z,4.73
2019-04-03T21:46:13.674Z,4.37
2019-04-03T21:48:45.362Z,4.40
2019-04-03T21:51:16.202Z,4.13
2019-04-03T21:53:46.691Z,3.67
2019-04-03T21:56:17.467Z,3.93
2019-04-03T21:58:47.893Z,2.90
2019-04-03T22:01:27.848Z,3.60
2019-04-03T22:03:58.277Z,3.53
2019-04-03T22:06:29.015Z,3.53
2019-04-03T22:09:00.573Z,3.27
2019-04-03T22:11:31.162Z,3.27
2019-04-03T22:14:01.588Z,2.97
2019-04-03T22:16:32.060Z,2.50
2019-04-03T22:19:03.168Z,2.90
2019-04-03T22:21:33.611Z,2.37
2019-04-03T22:24:06.565Z,2.23
2019-04-03T22:26:36.581Z,2.23
2019-04-03T22:29:07.004Z,2.03
2019-04-03T22:31:37.814Z,2.50
2019-04-03T22:34:08.243Z,2.60
2019-04-03T22:36:38.667Z,3.10
2019-04-03T22:39:09.133Z,3.50
2019-04-03T22:41:40.942Z,3.97
2019-04-03T22:44:11.689Z,3.93
2019-04-03T22:46:42.175Z,3.77
2019-04-03T22:49:12.598Z,4.13
2019-04-03T22:51:43.886Z,4.17
2019-04-03T22:54:14.342Z,3.97
2019-04-03T22:56:45.891Z,4.00
2019-04-03T22:59:16.891Z,3.90
2019-04-03T23:01:47.352Z,3.50
2019-04-03T23:04:17.773Z,3.40
2019-04-03T23:06:49.709Z,3.67
2019-04-03T23:09:20.555Z,3.77
2019-04-03T23:11:51.009Z,3.73
2019-04-03T23:14:21.480Z,3.67
2019-04-03T23:16:52.000Z,4.13
2019-04-03T23:19:22.474Z,3.60
2019-04-03T23:21:54.852Z,2.97
2019-04-03T23:24:28.548Z,3.20
2019-04-03T23:26:57.761Z,3.13
2019-04-03T23:29:28.959Z,3.20
2019-04-03T23:31:59.474Z,3.17
2019-04-03T23:34:29.942Z,2.70
2019-04-03T23:37:00.413Z,3.13
2019-04-03T23:39:31.290Z,2.87
2019-04-03T23:42:01.762Z,2.93
2019-04-03T23:44:32.520Z,2.53
2019-04-03T23:47:03.052Z,3.70
2019-04-03T23:49:33.522Z,3.37
2019-04-03T23:52:03.989Z,3.57
2019-04-03T23:54:34.977Z,3.33
2019-04-03T23:57:05.453Z,3.33
2019-04-03T23:59:35.915Z,3.47
